Time;durP1;ratioP1;P1;durP2;ratioP2;P2;SDS_P1;SDS_P2;PMS_P1;PMS_P2;Temp;Humidity;BMP_temperature;BMP_pressure;BME280_temperature;BME280_humidity;BME280_pressure;Samples;Min_cycle;Max_cycle;Signal;HPM_P1;HPM_P2
2021/05/08 00:01:30;;;;;;;;;;;4.70;99.90;;;;;;5012820;28;19906;-77
2021/05/08 00:03:56;;;;;;;;;;;4.60;99.90;;;;;;5012579;28;20368;-77
2021/05/08 00:06:21;;;;;;;;;;;4.60;99.90;;;;;;5014016;28;19905;-77
2021/05/08 00:08:47;;;;;;;;;;;4.60;99.90;;;;;;5013616;28;19912;-77
2021/05/08 00:11:12;;;;;;;;;;;4.60;99.90;;;;;;5012907;28;19910;-77
2021/05/08 00:13:37;;;;;;;;;;;4.60;99.90;;;;;;5012513;28;19909;-77
2021/05/08 00:16:03;;;;;;;;;;;4.50;99.90;;;;;;5012900;28;20270;-77
2021/05/08 00:18:29;;;;;;;;;;;4.50;99.90;;;;;;5012300;28;19921;-77
2021/05/08 00:20:54;;;;;;;;;;;4.40;99.90;;;;;;5012580;28;19916;-77
2021/05/08 00:23:19;;;;;;;;;;;4.40;99.90;;;;;;5012529;28;19932;-77
2021/05/08 00:25:45;;;;;;;;;;;4.40;99.90;;;;;;5012571;28;19948;-77
2021/05/08 00:28:10;;;;;;;;;;;4.30;99.90;;;;;;5011925;28;20291;-77
2021/05/08 00:30:36;;;;;;;;;;;4.30;99.90;;;;;;5012103;28;20298;-77
2021/05/08 00:33:01;;;;;;;;;;;4.30;99.90;;;;;;5013574;28;19947;-77
2021/05/08 00:35:27;;;;;;;;;;;4.30;99.90;;;;;;5012280;28;19929;-77
2021/05/08 00:37:52;;;;;;;;;;;4.30;99.90;;;;;;5013500;28;20016;-77
2021/05/08 00:40:17;;;;;;;;;;;4.20;99.90;;;;;;5013371;28;20360;-77
2021/05/08 00:42:43;;;;;;;;;;;4.20;99.90;;;;;;5012077;28;19921;-77
2021/05/08 00:45:08;;;;;;;;;;;4.10;99.90;;;;;;5013279;28;19905;-77
2021/05/08 00:47:42;;;;;;;;;;;4.20;99.90;;;;;;5012295;28;19910;-77
2021/05/08 00:50:09;;;;;;;;;;;4.20;99.90;;;;;;5012176;28;20007;-77
2021/05/08 00:52:35;;;;;;;;;;;4.10;99.90;;;;;;5012170;28;20392;-77
2021/05/08 00:55:01;;;;;;;;;;;4.10;99.90;;;;;;5011913;28;19906;-77
2021/05/08 00:57:26;;;;;;;;;;;4.00;99.90;;;;;;5011930;28;19917;-77
2021/05/08 00:59:52;;;;;;;;;;;4.00;99.90;;;;;;5011421;28;19909;-77
2021/05/08 01:02:17;;;;;;;;;;;4.00;99.90;;;;;;5012576;28;19911;-77
2021/05/08 01:04:43;;;;;;;;;;;4.00;99.90;;;;;;5011876;28;19913;-77
2021/05/08 01:07:08;;;;;;;;;;;4.00;99.90;;;;;;5011981;28;19906;-77
2021/05/08 01:09:34;;;;;;;;;;;3.90;99.90;;;;;;5012702;28;19905;-77
2021/05/08 01:11:59;;;;;;;;;;;3.90;99.90;;;;;;5012983;28;19905;-77
2021/05/08 01:14:25;;;;;;;;;;;3.90;99.90;;;;;;5012929;28;20275;-77
2021/05/08 01:16:53;;;;;;;;;;;3.90;99.90;;;;;;5011932;28;20371;-77
2021/05/08 01:19:20;;;;;;;;;;;3.90;99.90;;;;;;5011250;28;19916;-77
2021/05/08 01:21:45;;;;;;;;;;;3.90;99.90;;;;;;5013163;28;19913;-77
2021/05/08 01:24:11;;;;;;;;;;;3.80;99.90;;;;;;5013129;28;20328;-77
2021/05/08 01:26:37;;;;;;;;;;;3.80;99.90;;;;;;5011692;28;19905;-77
2021/05/08 01:29:03;;;;;;;;;;;3.80;99.90;;;;;;5012716;28;19932;-77
2021/05/08 01:31:29;;;;;;;;;;;3.70;99.90;;;;;;5011698;28;19928;-77
2021/05/08 01:33:54;;;;;;;;;;;3.70;99.90;;;;;;5011812;28;20366;-77
2021/05/08 01:36:20;;;;;;;;;;;3.70;99.90;;;;;;5011719;28;20050;-77
2021/05/08 01:38:46;;;;;;;;;;;3.60;99.90;;;;;;5012283;28;20008;-77
2021/05/08 01:41:11;;;;;;;;;;;3.60;99.90;;;;;;5017063;28;20364;-77
2021/05/08 01:43:37;;;;;;;;;;;3.60;99.90;;;;;;5016986;28;19913;-77
2021/05/08 01:46:03;;;;;;;;;;;3.60;99.90;;;;;;5026565;28;19917;-78
2021/05/08 01:48:29;;;;;;;;;;;3.60;99.90;;;;;;5032033;28;19906;-78
2021/05/08 01:50:54;;;;;;;;;;;3.60;99.90;;;;;;5033393;28;19906;-78
2021/05/08 01:53:20;;;;;;;;;;;3.50;99.90;;;;;;5027482;28;20109;-77
2021/05/08 01:55:48;;;;;;;;;;;3.60;99.90;;;;;;5015017;28;19911;-77
2021/05/08 01:58:13;;;;;;;;;;;3.50;99.90;;;;;;5015202;28;19913;-77
2021/05/08 02:00:43;;;;;;;;;;;3.60;99.90;;;;;;5014883;28;19975;-77
2021/05/08 02:03:10;;;;;;;;;;;3.60;99.90;;;;;;5015225;28;19925;-77
2021/05/08 02:05:36;;;;;;;;;;;3.70;99.90;;;;;;5016156;28;19909;-77
2021/05/08 02:08:03;;;;;;;;;;;3.80;99.90;;;;;;5015241;28;19928;-78
2021/05/08 02:10:30;;;;;;;;;;;3.90;99.90;;;;;;5014802;28;19913;-77
2021/05/08 02:12:56;;;;;;;;;;;4.00;99.90;;;;;;5015097;28;19914;-78
2021/05/08 02:15:21;;;;;;;;;;;4.00;99.90;;;;;;5014974;28;19912;-77
2021/05/08 02:17:47;;;;;;;;;;;4.20;99.90;;;;;;5014699;28;19909;-77
2021/05/08 02:20:14;;;;;;;;;;;4.10;99.90;;;;;;5014778;28;19916;-77
2021/05/08 02:22:40;;;;;;;;;;;4.20;99.90;;;;;;5014540;28;20356;-77
2021/05/08 02:25:07;;;;;;;;;;;4.20;99.90;;;;;;5016277;28;19992;-77
2021/05/08 02:27:33;;;;;;;;;;;4.20;99.90;;;;;;5014662;28;19960;-77
2021/05/08 02:29:58;;;;;;;;;;;4.10;99.90;;;;;;5015593;28;19981;-77
2021/05/08 02:32:24;;;;;;;;;;;4.00;99.90;;;;;;5014522;28;20071;-77
2021/05/08 02:34:49;;;;;;;;;;;4.00;99.90;;;;;;5014528;28;19909;-77
2021/05/08 02:37:15;;;;;;;;;;;4.00;99.90;;;;;;5015489;28;19997;-77
2021/05/08 02:39:40;;;;;;;;;;;3.90;99.90;;;;;;5014215;28;19911;-77
2021/05/08 02:42:06;;;;;;;;;;;3.80;99.90;;;;;;5015525;28;19914;-77
2021/05/08 02:44:31;;;;;;;;;;;3.80;99.90;;;;;;5015542;28;20351;-77
2021/05/08 02:46:56;;;;;;;;;;;3.70;99.90;;;;;;5014099;28;19909;-77
2021/05/08 02:49:22;;;;;;;;;;;3.60;99.90;;;;;;5013537;28;19910;-77
2021/05/08 02:51:47;;;;;;;;;;;3.60;99.90;;;;;;5014016;28;20012;-77
2021/05/08 02:54:13;;;;;;;;;;;3.60;99.90;;;;;;5013973;28;19906;-77
2021/05/08 02:56:38;;;;;;;;;;;3.60;99.90;;;;;;5013818;28;19952;-77
2021/05/08 02:59:04;;;;;;;;;;;3.70;99.90;;;;;;5013500;28;20288;-77
2021/05/08 03:01:29;;;;;;;;;;;3.60;99.90;;;;;;5015130;28;19928;-78
2021/05/08 03:03:55;;;;;;;;;;;3.50;99.90;;;;;;5015011;28;20055;-77
2021/05/08 03:06:20;;;;;;;;;;;3.50;99.90;;;;;;5013814;28;19951;-77
2021/05/08 03:08:45;;;;;;;;;;;3.50;99.90;;;;;;5014506;28;19910;-77
2021/05/08 03:11:11;;;;;;;;;;;3.50;99.90;;;;;;5014818;28;19906;-77
2021/05/08 03:13:36;;;;;;;;;;;3.50;99.90;;;;;;5013506;28;19955;-77
2021/05/08 03:16:02;;;;;;;;;;;3.40;99.90;;;;;;5013528;28;19909;-77
2021/05/08 03:18:27;;;;;;;;;;;3.40;99.90;;;;;;5013215;28;20372;-77
2021/05/08 03:20:53;;;;;;;;;;;3.40;99.90;;;;;;5013373;28;19951;-78
2021/05/08 03:23:18;;;;;;;;;;;3.30;99.90;;;;;;5013135;28;20276;-77
2021/05/08 03:25:44;;;;;;;;;;;3.20;99.90;;;;;;5013593;28;19909;-77
2021/05/08 03:28:09;;;;;;;;;;;3.20;99.90;;;;;;5014485;28;19905;-77
2021/05/08 03:30:34;;;;;;;;;;;3.20;99.90;;;;;;5013132;28;19956;-77
2021/05/08 03:33:00;;;;;;;;;;;3.20;99.90;;;;;;5013556;28;19906;-77
2021/05/08 03:35:25;;;;;;;;;;;3.10;99.90;;;;;;5013102;28;19913;-77
2021/05/08 03:37:51;;;;;;;;;;;3.10;99.90;;;;;;5012937;28;20375;-77
2021/05/08 03:40:16;;;;;;;;;;;3.10;99.90;;;;;;5014077;28;19971;-77
2021/05/08 03:42:42;;;;;;;;;;;3.00;99.90;;;;;;5014078;28;19924;-77
2021/05/08 03:45:07;;;;;;;;;;;3.00;99.90;;;;;;5012934;28;19912;-78
2021/05/08 03:47:33;;;;;;;;;;;3.00;99.90;;;;;;5014276;28;20004;-77
2021/05/08 03:49:58;;;;;;;;;;;3.00;99.90;;;;;;5012541;28;19905;-77
2021/05/08 03:52:24;;;;;;;;;;;3.00;99.90;;;;;;5014084;28;19913;-77
2021/05/08 03:54:50;;;;;;;;;;;3.00;99.90;;;;;;5014216;28;19909;-77
2021/05/08 03:57:16;;;;;;;;;;;3.20;99.90;;;;;;5012998;28;19906;-77
2021/05/08 03:59:41;;;;;;;;;;;3.10;99.90;;;;;;5014136;28;19905;-77
2021/05/08 04:02:06;;;;;;;;;;;3.20;99.90;;;;;;5013955;28;20302;-77
2021/05/08 04:04:32;;;;;;;;;;;3.30;99.90;;;;;;5012755;28;19996;-77
2021/05/08 04:06:57;;;;;;;;;;;3.20;99.90;;;;;;5014161;28;19949;-77
2021/05/08 04:09:23;;;;;;;;;;;3.30;99.90;;;;;;5014019;28;19948;-77
2021/05/08 04:11:48;;;;;;;;;;;3.40;99.90;;;;;;5012888;28;19905;-77
2021/05/08 04:14:14;;;;;;;;;;;3.60;99.90;;;;;;5013970;28;19929;-77
2021/05/08 04:16:39;;;;;;;;;;;3.70;99.90;;;;;;5014357;28;19905;-77
2021/05/08 04:19:05;;;;;;;;;;;3.70;99.90;;;;;;5012183;28;20008;-77
2021/05/08 04:21:31;;;;;;;;;;;3.80;99.90;;;;;;5013925;28;20348;-77
2021/05/08 04:23:56;;;;;;;;;;;3.80;99.90;;;;;;5012982;28;20589;-77
2021/05/08 04:26:22;;;;;;;;;;;3.90;99.90;;;;;;5013967;28;19944;-77
2021/05/08 04:28:47;;;;;;;;;;;4.00;99.90;;;;;;5013403;28;19905;-77
2021/05/08 04:31:13;;;;;;;;;;;4.10;99.90;;;;;;5012399;28;20372;-77
2021/05/08 04:33:38;;;;;;;;;;;4.10;99.90;;;;;;5013874;28;20292;-77
2021/05/08 04:36:04;;;;;;;;;;;4.20;99.90;;;;;;5013614;28;20346;-77
2021/05/08 04:38:29;;;;;;;;;;;4.30;99.90;;;;;;5012578;28;19956;-77
2021/05/08 04:40:55;;;;;;;;;;;4.30;99.90;;;;;;5012325;28;19934;-77
2021/05/08 04:43:21;;;;;;;;;;;4.30;99.90;;;;;;5013635;28;19929;-78
2021/05/08 04:45:46;;;;;;;;;;;4.40;99.90;;;;;;5011880;28;19912;-77
2021/05/08 04:48:20;;;;;;;;;;;4.50;99.90;;;;;;5013106;28;19951;-77
2021/05/08 04:50:45;;;;;;;;;;;4.50;99.90;;;;;;5020052;28;19894;-77
2021/05/08 04:53:11;;;;;;;;;;;4.60;99.90;;;;;;5026761;28;19916;-78
2021/05/08 04:55:36;;;;;;;;;;;4.70;99.90;;;;;;5029699;28;19905;-77
2021/05/08 04:58:08;;;;;;;;;;;5.10;99.90;;;;;;5023873;28;19941;-77
2021/05/08 05:00:33;;;;;;;;;;;5.20;99.90;;;;;;5012081;28;19920;-77
2021/05/08 05:02:58;;;;;;;;;;;5.20;99.90;;;;;;5010946;28;20133;-77
2021/05/08 05:05:24;;;;;;;;;;;5.40;99.90;;;;;;5012301;28;19909;-78
2021/05/08 05:07:49;;;;;;;;;;;5.80;99.90;;;;;;5011910;28;19995;-77
2021/05/08 05:10:15;;;;;;;;;;;6.40;99.90;;;;;;5010512;28;19920;-77
2021/05/08 05:12:41;;;;;;;;;;;6.90;99.90;;;;;;5011850;28;19906;-77
2021/05/08 05:15:07;;;;;;;;;;;6.80;99.90;;;;;;5010805;28;20379;-77
2021/05/08 05:17:32;;;;;;;;;;;6.60;99.90;;;;;;5011598;28;19913;-77
2021/05/08 05:19:58;;;;;;;;;;;6.80;99.90;;;;;;5010187;28;20008;-77
2021/05/08 05:22:23;;;;;;;;;;;7.50;99.90;;;;;;5010335;28;19905;-77
2021/05/08 05:24:49;;;;;;;3.83;2.63;;;7.50;99.90;;;;;;5011614;28;19906;-77
2021/05/08 05:27:14;;;;;;;3.15;2.50;;;7.60;99.90;;;;;;5011663;28;20062;-77
2021/05/08 05:29:40;;;;;;;4.63;3.38;;;7.80;99.90;;;;;;5009623;28;20112;-77
2021/05/08 05:32:06;;;;;;;3.33;2.50;;;8.20;99.90;;;;;;5009839;28;20030;-77
2021/05/08 05:34:32;;;;;;;2.70;2.33;;;8.30;99.90;;;;;;5011838;28;20040;-77
2021/05/08 05:36:57;;;;;;;;;;;8.40;99.90;;;;;;5011535;28;20076;-77
2021/05/08 05:39:23;;;;;;;4.70;2.40;;;8.90;99.90;;;;;;5009962;28;19917;-77
2021/05/08 05:41:48;;;;;;;;;;;10.40;99.90;;;;;;5009925;28;20034;-77
2021/05/08 05:44:13;;;;;;;;;;;12.30;99.90;;;;;;5011753;28;19912;-77
2021/05/08 05:46:39;;;;;;;;;;;13.10;99.90;;;;;;5011370;28;19906;-77
2021/05/08 05:49:04;;;;;;;;;;;14.30;99.90;;;;;;5009898;28;19909;-77
2021/05/08 05:51:30;;;;;;;;;;;15.80;95.90;;;;;;5010367;28;19936;-78
2021/05/08 05:53:58;;;;;;;;;;;16.90;91.00;;;;;;5010134;28;19912;-78
2021/05/08 05:56:27;;;;;;;2.70;2.17;;;17.50;79.40;;;;;;5009738;28;19905;-77
2021/05/08 05:58:54;;;;;;;2.38;2.00;;;16.70;81.30;;;;;;5009245;28;20045;-77
2021/05/08 06:01:19;;;;;;;3.05;2.25;;;17.20;77.30;;;;;;5010776;28;20385;-78
2021/05/08 06:03:45;;;;;;;2.90;2.63;;;17.40;75.50;;;;;;5009511;28;20030;-78
2021/05/08 06:06:11;;;;;;;2.65;2.42;;;17.80;74.30;;;;;;5009470;28;20018;-77
2021/05/08 06:08:37;;;;;;;2.67;1.95;;;18.00;73.60;;;;;;5010383;28;20041;-78
2021/05/08 06:11:04;;;;;;;5.13;2.50;;;18.30;71.60;;;;;;5009885;28;20030;-78
2021/05/08 06:13:32;;;;;;;2.25;1.90;;;18.90;70.80;;;;;;5011445;28;20018;-78
2021/05/08 06:16:00;;;;;;;2.22;1.98;;;19.00;66.70;;;;;;5010214;28;20030;-78
2021/05/08 06:18:26;;;;;;;1.92;1.83;;;20.60;64.10;;;;;;5010764;28;20439;-78
2021/05/08 06:20:52;;;;;;;2.20;1.45;;;21.20;62.90;;;;;;5010625;28;20018;-78
2021/05/08 06:23:18;;;;;;;1.90;1.58;;;22.10;59.10;;;;;;5011646;28;20057;-78
2021/05/08 06:25:43;;;;;;;2.80;2.13;;;21.90;57.10;;;;;;5012449;28;20156;-78
2021/05/08 06:28:09;;;;;;;2.38;1.75;;;21.00;59.70;;;;;;5013587;28;20053;-78
2021/05/08 06:30:35;;;;;;;1.63;1.45;;;20.20;58.60;;;;;;5013908;28;20424;-78
2021/05/08 06:33:00;;;;;;;2.60;1.92;;;20.30;60.10;;;;;;5015774;28;20049;-79
2021/05/08 06:35:26;;;;;;;2.65;1.80;;;20.90;58.10;;;;;;5015523;28;20029;-77
2021/05/08 06:37:51;;;;;;;2.85;1.98;;;21.00;57.90;;;;;;5015093;28;20037;-78
2021/05/08 06:40:17;;;;;;;3.88;2.08;;;21.50;56.70;;;;;;5013100;28;20030;-78
2021/05/08 06:42:42;;;;;;;1.92;1.70;;;20.80;56.70;;;;;;5013120;28;20515;-78
2021/05/08 06:45:09;;;;;;;2.30;1.60;;;22.40;53.80;;;;;;5015379;28;20393;-78
2021/05/08 06:47:34;;;;;;;;;;;21.50;56.40;;;;;;5020109;28;20026;-78
2021/05/08 06:50:00;;;;;;;;;;;21.70;54.80;;;;;;5023855;28;20410;-78
2021/05/08 06:52:25;;;;;;;;;;;22.20;54.80;;;;;;5026316;28;20419;-78
2021/05/08 06:54:51;;;;;;;;;;;23.50;52.90;;;;;;5023906;28;19947;-78
2021/05/08 06:57:16;;;;;;;;;;;22.50;52.20;;;;;;5025202;28;20283;-79
2021/05/08 06:59:42;;;;;;;;;;;22.20;54.40;;;;;;5025516;28;19941;-75
2021/05/08 07:02:07;;;;;;;;;;;22.60;52.10;;;;;;5024339;28;19905;-78
2021/05/08 07:04:33;;;;;;;;;;;21.90;52.50;;;;;;5024268;28;19948;-78
2021/05/08 07:06:58;;;;;;;;;;;22.20;53.50;;;;;;5024894;28;19905;-78
2021/05/08 07:09:24;;;;;;;;;;;22.00;54.50;;;;;;5025514;28;19948;-78
2021/05/08 07:11:49;;;;;;;;;;;21.20;53.80;;;;;;5024076;28;19906;-78
2021/05/08 07:14:15;;;;;;;;;;;20.50;54.90;;;;;;5025835;28;20392;-78
2021/05/08 07:16:40;;;;;;;;;;;20.00;56.70;;;;;;5025580;28;20417;-78
2021/05/08 07:19:06;;;;;;;;;;;19.90;56.60;;;;;;5025969;28;21312;-78
2021/05/08 07:21:31;;;;;;;;;;;20.00;56.70;;;;;;5024497;28;19963;-78
2021/05/08 07:23:57;;;;;;;;;;;20.30;57.20;;;;;;5016478;28;19912;-77
2021/05/08 07:26:22;;;;;;;;;;;20.20;56.40;;;;;;5016609;28;19913;-77
2021/05/08 07:28:47;;;;;;;;;;;19.20;58.80;;;;;;5015041;28;20379;-77
2021/05/08 07:31:13;;;;;;;4.72;2.17;;;19.60;58.60;;;;;;5015667;28;19906;-77
2021/05/08 07:33:39;;;;;;;2.80;2.20;;;20.10;57.70;;;;;;5012983;28;20033;-77
2021/05/08 07:36:05;;;;;;;2.95;1.95;;;21.70;57.90;;;;;;5012398;28;20022;-77
2021/05/08 07:38:30;;;;;;;2.53;1.90;;;22.00;55.40;;;;;;5013150;28;20022;-78
2021/05/08 07:40:56;;;;;;;1.55;1.45;;;22.60;55.20;;;;;;5015299;28;20022;-78
2021/05/08 07:43:22;;;;;;;;;;;22.00;55.60;;;;;;5014058;28;20029;-78
2021/05/08 07:45:48;;;;;;;;;;;23.00;53.20;;;;;;5014976;28;19925;-77
2021/05/08 07:48:13;;;;;;;2.83;1.60;;;23.70;52.20;;;;;;5012594;28;19968;-78
2021/05/08 07:50:39;;;;;;;;;;;24.50;51.60;;;;;;5028033;28;20052;-79
2021/05/08 07:53:06;;;;;;;;;;;24.00;50.20;;;;;;5029806;28;19912;-80
2021/05/08 07:55:31;;;;;;;;;;;24.00;51.60;;;;;;5035482;28;19906;-81
2021/05/08 07:57:58;;;;;;;;;;;24.50;51.00;;;;;;5031306;28;19910;-79
2021/05/08 08:00:23;;;;;;;;;;;26.20;49.10;;;;;;5028286;28;20287;-87
2021/05/08 08:02:49;;;;;;;;;;;26.40;47.50;;;;;;5014945;28;19945;-80
2021/05/08 08:05:16;;;;;;;;;;;26.00;48.10;;;;;;5014842;28;20194;-79
2021/05/08 08:07:41;;;;;;;;;;;26.00;47.30;;;;;;5014881;28;19960;-83
2021/05/08 08:10:07;;;;;;;;;;;25.00;48.10;;;;;;5013593;28;19929;-80
2021/05/08 08:12:33;;;;;;;4.60;2.40;;;25.20;48.90;;;;;;5012851;28;20390;-80
2021/05/08 08:14:59;;;;;;;;;;;25.10;48.40;;;;;;5012448;28;19916;-78
2021/05/08 08:17:24;;;;;;;;;;;25.00;51.20;;;;;;5012486;28;19910;-78
2021/05/08 08:19:51;;;;;;;;;;;24.80;49.60;;;;;;5012441;28;19909;-78
2021/05/08 08:22:17;;;;;;;;;;;24.60;48.70;;;;;;5013586;28;19910;-78
2021/05/08 08:24:43;;;;;;;1.77;1.27;;;23.00;49.00;;;;;;5012948;28;19994;-78
2021/05/08 08:27:09;;;;;;;;;;;22.80;52.20;;;;;;5013149;28;20441;-79
2021/05/08 08:29:35;;;;;;;;;;;21.90;51.20;;;;;;5013170;28;19916;-78
2021/05/08 08:32:00;;;;;;;;;;;22.50;52.90;;;;;;5013695;28;19905;-77
2021/05/08 08:34:26;;;;;;;;;;;22.40;52.20;;;;;;5013628;28;19913;-78
2021/05/08 08:36:51;;;;;;;;;;;21.70;53.60;;;;;;5012342;28;19906;-78
2021/05/08 08:39:17;;;;;;;;;;;20.10;56.50;;;;;;5013257;28;19913;-78
2021/05/08 08:41:43;;;;;;;;;;;19.40;57.10;;;;;;5011834;28;19916;-77
2021/05/08 08:44:11;;;;;;;;;;;19.50;58.90;;;;;;5012049;28;19928;-78
2021/05/08 08:46:41;;;;;;;;;;;19.70;55.90;;;;;;5011908;28;19905;-78
2021/05/08 08:49:06;;;;;;;;;;;19.50;53.50;;;;;;5011343;28;19944;-77
2021/05/08 08:51:32;;;;;;;;;;;18.70;55.20;;;;;;5012019;28;20419;-77
2021/05/08 08:53:58;;;;;;;;;;;18.10;58.60;;;;;;5013225;28;20427;-77
2021/05/08 08:56:26;;;;;;;;;;;17.60;59.30;;;;;;5012997;28;19909;-77
2021/05/08 08:58:56;;;;;;;;;;;16.90;59.70;;;;;;5011551;28;20016;-77
2021/05/08 09:01:22;;;;;;;;;;;16.80;62.00;;;;;;5012954;28;19913;-77
2021/05/08 09:03:47;;;;;;;;;;;16.50;61.60;;;;;;5012673;28;19905;-78
2021/05/08 09:06:13;;;;;;;;;;;16.60;65.60;;;;;;5012779;28;19909;-77
2021/05/08 09:08:38;;;;;;;;;;;16.90;64.20;;;;;;5012393;28;20016;-77
2021/05/08 09:11:23;;;;;;;;;;;17.10;62.70;;;;;;5011186;28;20335;-77
2021/05/08 09:14:08;;;;;;;;;;;16.90;61.10;;;;;;5011799;28;20296;-78
2021/05/08 09:16:33;;;;;;;;;;;17.00;64.50;;;;;;5013129;28;19964;-77
2021/05/08 09:19:00;;;;;;;;;;;16.90;62.90;;;;;;5011267;28;20376;-78
2021/05/08 09:21:27;;;;;;;;;;;17.00;64.20;;;;;;5011376;28;19905;-78
2021/05/08 09:23:58;;;;;;;;;;;17.20;64.40;;;;;;5012678;28;19905;-77
2021/05/08 09:26:23;;;;;;;;;;;17.40;64.00;;;;;;5011439;28;19909;-77
2021/05/08 09:28:53;;;;;;;;;;;17.70;63.70;;;;;;5012267;28;20009;-78
2021/05/08 09:31:19;;;;;;;;;;;18.20;59.90;;;;;;5011334;28;19909;-77
2021/05/08 09:33:51;;;;;;;;;;;18.40;59.30;;;;;;5012330;28;20352;-78
2021/05/08 09:36:17;;;;;;;;;;;18.90;60.00;;;;;;5011673;28;19920;-77
2021/05/08 09:38:43;;;;;;;;;;;19.60;59.30;;;;;;5010943;28;20283;-78
2021/05/08 09:41:11;;;;;;;;;;;20.70;59.60;;;;;;5011291;28;20364;-77
2021/05/08 09:43:39;;;;;;;;;;;21.00;55.80;;;;;;5011318;28;20004;-77
2021/05/08 09:46:05;;;;;;;;;;;21.00;59.60;;;;;;5011352;28;20407;-78
2021/05/08 09:48:32;;;;;;;1.80;1.63;;;21.80;57.50;;;;;;5010688;28;20302;-79
2021/05/08 09:51:22;;;;;;;1.73;1.45;;;21.90;55.10;;;;;;5012387;28;20080;-78
2021/05/08 09:53:51;;;;;;;2.10;1.15;;;23.00;53.00;;;;;;5010859;28;20508;-78
2021/05/08 09:56:36;;;;;;;;;;;22.70;54.20;;;;;;5011198;28;20071;-78
2021/05/08 09:59:22;;;;;;;2.20;1.35;;;23.30;54.40;;;;;;5011542;28;19920;-78
2021/05/08 10:01:48;;;;;;;2.10;1.58;;;24.60;53.90;;;;;;5015433;28;19906;-79
2021/05/08 10:04:33;;;;;;;1.55;1.05;;;25.00;52.20;;;;;;5014884;28;20037;-78
2021/05/08 10:07:05;;;;;;;;;;;24.40;51.70;;;;;;5015244;28;20022;-78
2021/05/08 10:09:31;;;;;;;;;;;24.20;48.30;;;;;;5014819;28;19909;-77
2021/05/08 10:11:58;;;;;;;;;;;24.00;51.20;;;;;;5015247;28;20162;-77
2021/05/08 10:14:23;;;;;;;;;;;24.20;53.40;;;;;;5015153;28;19909;-78
2021/05/08 10:16:49;;;;;;;0.87;0.83;;;23.80;52.00;;;;;;5015838;28;20353;-77
2021/05/08 10:19:15;;;;;;;1.00;0.80;;;24.30;51.00;;;;;;5015083;28;20029;-78
2021/05/08 10:21:42;;;;;;;;;;;23.80;48.70;;;;;;5016174;28;20045;-77
2021/05/08 10:24:08;;;;;;;1.85;0.98;;;24.20;47.60;;;;;;5014678;28;19909;-78
2021/05/08 10:26:33;;;;;;;1.58;0.85;;;24.10;49.20;;;;;;5014641;28;20514;-78
2021/05/08 10:28:59;;;;;;;2.13;1.03;;;24.10;48.50;;;;;;5014103;28;20064;-77
2021/05/08 10:31:25;;;;;;;;;;;24.60;48.70;;;;;;5014870;28;20064;-78
2021/05/08 10:33:50;;;;;;;;;;;25.00;49.30;;;;;;5015428;28;19915;-79
2021/05/08 10:36:45;;;;;;;0.70;0.67;;;25.10;50.10;;;;;;5014685;28;19909;-78
2021/05/08 10:39:11;;;;;;;1.40;0.77;;;24.90;46.30;;;;;;5015054;28;20036;-78
2021/05/08 10:41:49;;;;;;;;;;;24.30;47.00;;;;;;5015853;28;20029;-79
2021/05/08 10:44:34;;;;;;;;;;;23.90;49.60;;;;;;5015780;28;19940;-79
2021/05/08 10:47:00;;;;;;;;;;;23.90;48.70;;;;;;5014438;28;19912;-79
2021/05/08 10:49:25;;;;;;;;;;;24.30;47.00;;;;;;5015634;28;19913;-79
2021/05/08 10:51:57;;;;;;;;;;;23.20;47.00;;;;;;5014361;28;19906;-79
2021/05/08 10:54:44;;;;;;;;;;;22.00;47.20;;;;;;5015346;28;19958;-79
2021/05/08 10:57:16;;;;;;;;;;;22.70;52.50;;;;;;5014325;28;19906;-79
2021/05/08 11:00:00;;;;;;;;;;;23.40;46.40;;;;;;5014875;28;19909;-78
2021/05/08 11:02:44;;;;;;;;;;;23.10;49.80;;;;;;5015128;28;19960;-77
2021/05/08 11:05:25;;;;;;;;;;;22.90;45.40;;;;;;5015341;28;19906;-78
2021/05/08 11:07:50;;;;;;;;;;;23.00;48.10;;;;;;5014906;28;19911;-77
2021/05/08 11:10:34;;;;;;;;;;;21.80;51.80;;;;;;5013065;28;19905;-78
2021/05/08 11:13:09;;;;;;;;;;;21.40;52.50;;;;;;5013601;28;20303;-77
2021/05/08 11:15:49;;;;;;;;;;;21.50;51.80;;;;;;5014562;28;19913;-77
2021/05/08 11:18:30;;;;;;;;;;;21.60;52.50;;;;;;5012986;28;20434;-78
2021/05/08 11:20:56;;;;;;;;;;;20.70;50.30;;;;;;5014180;28;19941;-77
2021/05/08 11:23:21;;;;;;;;;;;20.60;52.10;;;;;;5014433;28;20398;-78
2021/05/08 11:25:47;;;;;;;;;;;19.80;53.00;;;;;;5013196;28;19929;-78
2021/05/08 11:28:12;;;;;;;;;;;19.80;53.70;;;;;;5013270;28;19909;-77
2021/05/08 11:30:53;;;;;;;;;;;20.20;55.20;;;;;;5014012;28;19909;-77
2021/05/08 11:33:20;;;;;;;;;;;20.50;55.20;;;;;;5014631;28;20422;-78
2021/05/08 11:35:58;;;;;;;;;;;20.90;53.10;;;;;;5013070;28;19945;-78
2021/05/08 11:38:23;;;;;;;;;;;20.50;55.50;;;;;;5012752;28;20032;-77
2021/05/08 11:40:48;;;;;;;;;;;20.40;55.10;;;;;;5014286;28;20392;-77
2021/05/08 11:43:20;;;;;;;;;;;19.80;53.20;;;;;;5014269;28;20414;-78
2021/05/08 11:45:45;;;;;;;;;;;19.30;56.10;;;;;;5012856;28;20437;-77
2021/05/08 11:48:11;;;;;;;;;;;19.40;52.10;;;;;;5014059;28;19909;-78
2021/05/08 11:50:37;;;;;;;;;;;19.50;57.30;;;;;;5012490;28;19906;-78
2021/05/08 11:53:02;;;;;;;;;;;20.00;54.20;;;;;;5014102;28;19905;-78
2021/05/08 11:55:27;;;;;;;;;;;19.90;52.60;;;;;;5012636;28;19912;-77
2021/05/08 11:57:57;;;;;;;;;;;19.40;54.10;;;;;;5012701;28;20272;-77
2021/05/08 12:00:26;;;;;;;;;;;19.20;53.10;;;;;;5012150;28;19921;-78
2021/05/08 12:03:15;;;;;;;;;;;19.30;55.80;;;;;;5012663;28;20284;-78
2021/05/08 12:05:41;;;;;;;;;;;19.60;52.80;;;;;;5003147;28;20360;-78
2021/05/08 12:08:07;;;;;;;;;;;19.40;56.60;;;;;;5012257;28;19967;-78
2021/05/08 12:10:33;;;;;;;;;;;19.40;53.80;;;;;;5012013;28;19961;-77
2021/05/08 12:12:59;;;;;;;;;;;19.50;55.10;;;;;;5012527;28;20357;-77
2021/05/08 12:15:25;;;;;;;;;;;19.50;54.10;;;;;;5012109;28;19906;-78
2021/05/08 12:17:52;;;;;;;;;;;19.50;53.60;;;;;;5012384;28;19947;-78
2021/05/08 12:20:18;;;;;;;;;;;19.70;57.20;;;;;;5012005;28;20287;-77
2021/05/08 12:22:44;;;;;;;;;;;20.00;55.80;;;;;;5011582;28;19909;-77
2021/05/08 12:25:17;;;;;;;;;;;19.90;54.60;;;;;;5012005;28;19912;-76
2021/05/08 12:27:42;;;;;;;;;;;20.10;57.20;;;;;;5013598;28;19912;-78
2021/05/08 12:30:08;;;;;;;;;;;20.20;54.90;;;;;;5013270;28;19905;-77
2021/05/08 12:32:34;;;;;;;;;;;19.90;55.20;;;;;;5011970;28;19959;-77
2021/05/08 12:34:59;;;;;;;;;;;19.90;55.90;;;;;;5012248;28;19928;-77
2021/05/08 12:37:25;;;;;;;;;;;20.10;56.60;;;;;;5012062;28;19912;-79
2021/05/08 12:39:50;;;;;;;;;;;19.80;53.00;;;;;;5013237;28;19905;-77
2021/05/08 12:42:16;;;;;;;;;;;19.90;57.90;;;;;;5011954;28;19959;-77
2021/05/08 12:44:46;;;;;;;;;;;20.30;58.80;;;;;;5012028;28;19906;-77
2021/05/08 12:47:22;;;;;;;;;;;20.00;56.20;;;;;;5011696;28;19905;-77
2021/05/08 12:50:03;;;;;;;;;;;20.00;57.70;;;;;;5011502;28;19995;-78
2021/05/08 12:52:28;;;;;;;;;;;19.70;56.60;;;;;;5011532;28;19906;-78
2021/05/08 12:54:55;;;;;;;;;;;19.80;56.70;;;;;;5013074;28;19905;-78
2021/05/08 12:57:24;;;;;;;;;;;20.30;56.30;;;;;;5011634;28;19912;-77
2021/05/08 12:59:55;;;;;;;;;;;20.80;57.50;;;;;;5011391;28;19906;-78
2021/05/08 13:02:22;;;;;;;;;;;20.70;54.80;;;;;;5011401;28;20320;-79
2021/05/08 13:04:48;;;;;;;;;;;21.00;58.00;;;;;;5014251;28;19909;-78
2021/05/08 13:07:25;;;;;;;;;;;20.80;53.20;;;;;;5013959;28;19933;-80
2021/05/08 13:09:51;;;;;;;;;;;20.40;54.70;;;;;;5012453;28;20379;-79
2021/05/08 13:12:22;;;;;;;;;;;20.40;55.80;;;;;;5028351;28;19906;-79
2021/05/08 13:14:48;;;;;;;;;;;20.40;57.20;;;;;;5012460;28;19911;-80
2021/05/08 13:17:14;;;;;;;;;;;20.40;57.00;;;;;;5013990;28;19949;-80
2021/05/08 13:19:40;;;;;;;;;;;20.30;53.90;;;;;;5013415;28;19909;-80
2021/05/08 13:22:05;;;;;;;;;;;20.30;53.60;;;;;;5012703;28;19905;-80
2021/05/08 13:24:32;;;;;;;;;;;20.30;55.90;;;;;;5014793;28;20368;-79
2021/05/08 13:26:58;;;;;;;;;;;20.20;54.90;;;;;;5012941;28;19928;-80
2021/05/08 13:29:23;;;;;;;;;;;20.20;54.90;;;;;;5012718;28;20380;-80
2021/05/08 13:31:49;;;;;;;;;;;20.50;54.30;;;;;;5012933;28;19905;-80
2021/05/08 13:34:14;;;;;;;;;;;20.40;56.50;;;;;;5013357;28;19948;-79
2021/05/08 13:36:40;;;;;;;;;;;20.30;55.60;;;;;;5016775;28;20044;-80
2021/05/08 13:39:06;;;;;;;;;;;20.20;55.20;;;;;;5016925;28;19964;-80
2021/05/08 13:41:31;;;;;;;;;;;20.30;57.10;;;;;;5018781;28;19940;-79
2021/05/08 13:43:57;;;;;;;;;;;20.00;55.30;;;;;;5018816;28;19909;-79
2021/05/08 13:46:22;;;;;;;;;;;20.10;53.40;;;;;;5019055;28;19943;-80
2021/05/08 13:48:47;;;;;;;;;;;19.70;55.00;;;;;;5018475;28;19932;-80
2021/05/08 13:51:13;;;;;;;;;;;19.80;55.20;;;;;;5018639;28;19924;-79
2021/05/08 13:53:38;;;;;;;;;;;19.80;58.50;;;;;;5019790;28;19933;-80
2021/05/08 13:56:04;;;;;;;;;;;19.60;60.30;;;;;;5019238;28;20036;-84
2021/05/08 13:58:29;;;;;;;;;;;19.70;59.70;;;;;;5014513;28;19995;-79
2021/05/08 14:00:55;;;;;;;;;;;19.60;58.80;;;;;;5014979;28;19953;-78
2021/05/08 14:03:20;;;;;;;;;;;19.50;57.20;;;;;;5014967;28;19989;-79
2021/05/08 14:05:46;;;;;;;;;;;19.60;58.40;;;;;;5016378;28;19913;-79
2021/05/08 14:08:11;;;;;;;;;;;19.50;59.20;;;;;;5015125;28;19999;-78